sensor_id;sensor_type;location;lat;lon;timestamp;P1;durP1;ratioP1;P2;durP2;ratioP2
16593;SDS011;8410;52.532;13.336;2023-04-24T00:01:16;9.23;;;8.43;;
16593;SDS011;8410;52.532;13.336;2023-04-24T00:03:45;9.00;;;8.07;;
16593;SDS011;8410;52.532;13.336;2023-04-24T00:06:13;5.10;;;4.60;;
16593;SDS011;8410;52.532;13.336;2023-04-24T00:08:42;5.00;;;4.50;;
16593;SDS011;8410;52.532;13.336;2023-04-24T00:11:11;4.80;;;4.07;;
16593;SDS011;8410;52.532;13.336;2023-04-24T00:13:39;5.17;;;4.77;;
16593;SDS011;8410;52.532;13.336;2023-04-24T00:16:06;4.93;;;4.33;;
16593;SDS011;8410;52.532;13.336;2023-04-24T00:18:34;4.50;;;4.10;;
16593;SDS011;8410;52.532;13.336;2023-04-24T00:21:01;4.70;;;4.30;;
16593;SDS011;8410;52.532;13.336;2023-04-24T00:23:29;4.63;;;4.33;;
16593;SDS011;8410;52.532;13.336;2023-04-24T00:25:56;4.63;;;4.23;;
16593;SDS011;8410;52.532;13.336;2023-04-24T00:28:25;4.57;;;4.23;;
16593;SDS011;8410;52.532;13.336;2023-04-24T00:30:52;5.23;;;4.73;;
16593;SDS011;8410;52.532;13.336;2023-04-24T00:33:20;5.53;;;4.80;;
16593;SDS011;8410;52.532;13.336;2023-04-24T00:35:47;5.00;;;4.60;;
16593;SDS011;8410;52.532;13.336;2023-04-24T00:38:15;4.60;;;4.20;;
16593;SDS011;8410;52.532;13.336;2023-04-24T00:40:42;7.33;;;6.53;;
16593;SDS011;8410;52.532;13.336;2023-04-24T00:43:09;5.70;;;5.10;;
16593;SDS011;8410;52.532;13.336;2023-04-24T00:45:39;5.00;;;4.50;;
16593;SDS011;8410;52.532;13.336;2023-04-24T00:48:06;7.63;;;6.60;;
16593;SDS011;8410;52.532;13.336;2023-04-24T00:50:35;7.40;;;5.20;;
16593;SDS011;8410;52.532;13.336;2023-04-24T00:53:03;5.50;;;5.10;;
16593;SDS011;8410;52.532;13.336;2023-04-24T00:55:30;5.47;;;4.90;;
16593;SDS011;8410;52.532;13.336;2023-04-24T00:57:58;6.23;;;5.37;;
16593;SDS011;8410;52.532;13.336;2023-04-24T01:00:26;5.30;;;4.90;;
16593;SDS011;8410;52.532;13.336;2023-04-24T01:02:55;5.90;;;4.70;;
16593;SDS011;8410;52.532;13.336;2023-04-24T01:05:25;6.27;;;5.63;;
16593;SDS011;8410;52.532;13.336;2023-04-24T01:07:53;6.43;;;5.53;;
16593;SDS011;8410;52.532;13.336;2023-04-24T01:10:20;6.10;;;5.57;;
16593;SDS011;8410;52.532;13.336;2023-04-24T01:12:49;7.23;;;6.27;;
16593;SDS011;8410;52.532;13.336;2023-04-24T01:15:17;6.70;;;6.10;;
16593;SDS011;8410;52.532;13.336;2023-04-24T01:17:44;9.07;;;5.57;;
16593;SDS011;8410;52.532;13.336;2023-04-24T01:20:14;5.57;;;5.00;;
16593;SDS011;8410;52.532;13.336;2023-04-24T01:22:43;7.23;;;5.00;;
16593;SDS011;8410;52.532;13.336;2023-04-24T01:25:10;5.73;;;5.13;;
16593;SDS011;8410;52.532;13.336;2023-04-24T01:27:38;6.97;;;6.37;;
16593;SDS011;8410;52.532;13.336;2023-04-24T01:30:06;6.77;;;6.03;;
16593;SDS011;8410;52.532;13.336;2023-04-24T01:32:34;5.33;;;4.83;;
16593;SDS011;8410;52.532;13.336;2023-04-24T01:35:03;6.13;;;5.60;;
16593;SDS011;8410;52.532;13.336;2023-04-24T01:37:31;6.47;;;5.53;;
16593;SDS011;8410;52.532;13.336;2023-04-24T01:40:00;6.03;;;5.27;;
16593;SDS011;8410;52.532;13.336;2023-04-24T01:42:29;7.30;;;6.60;;
16593;SDS011;8410;52.532;13.336;2023-04-24T01:44:57;7.17;;;6.47;;
16593;SDS011;8410;52.532;13.336;2023-04-24T01:47:25;7.17;;;6.50;;
16593;SDS011;8410;52.532;13.336;2023-04-24T01:49:52;6.67;;;5.90;;
16593;SDS011;8410;52.532;13.336;2023-04-24T01:52:20;7.83;;;6.83;;
16593;SDS011;8410;52.532;13.336;2023-04-24T01:54:47;7.13;;;6.47;;
16593;SDS011;8410;52.532;13.336;2023-04-24T01:57:16;9.93;;;9.03;;
16593;SDS011;8410;52.532;13.336;2023-04-24T01:59:44;8.20;;;6.90;;
16593;SDS011;8410;52.532;13.336;2023-04-24T02:02:11;6.20;;;5.77;;
16593;SDS011;8410;52.532;13.336;2023-04-24T02:04:39;6.70;;;6.10;;
16593;SDS011;8410;52.532;13.336;2023-04-24T02:07:06;7.37;;;6.70;;
16593;SDS011;8410;52.532;13.336;2023-04-24T02:09:34;6.27;;;5.77;;
16593;SDS011;8410;52.532;13.336;2023-04-24T02:12:01;6.90;;;6.30;;
16593;SDS011;8410;52.532;13.336;2023-04-24T02:14:30;7.73;;;6.77;;
16593;SDS011;8410;52.532;13.336;2023-04-24T02:16:57;12.87;;;11.57;;
16593;SDS011;8410;52.532;13.336;2023-04-24T02:19:25;9.20;;;8.30;;
16593;SDS011;8410;52.532;13.336;2023-04-24T02:21:52;5.80;;;5.30;;
16593;SDS011;8410;52.532;13.336;2023-04-24T02:24:19;6.03;;;5.53;;
16593;SDS011;8410;52.532;13.336;2023-04-24T02:26:47;6.07;;;5.47;;
16593;SDS011;8410;52.532;13.336;2023-04-24T02:29:14;6.17;;;5.67;;
16593;SDS011;8410;52.532;13.336;2023-04-24T02:31:43;6.50;;;6.00;;
16593;SDS011;8410;52.532;13.336;2023-04-24T02:34:11;6.40;;;5.90;;
16593;SDS011;8410;52.532;13.336;2023-04-24T02:36:38;6.30;;;5.80;;
16593;SDS011;8410;52.532;13.336;2023-04-24T02:39:05;5.93;;;5.43;;
16593;SDS011;8410;52.532;13.336;2023-04-24T02:41:33;6.03;;;5.60;;
16593;SDS011;8410;52.532;13.336;2023-04-24T02:44:00;6.73;;;6.23;;
16593;SDS011;8410;52.532;13.336;2023-04-24T02:46:28;6.00;;;5.50;;
16593;SDS011;8410;52.532;13.336;2023-04-24T02:48:57;6.13;;;5.57;;
16593;SDS011;8410;52.532;13.336;2023-04-24T02:51:24;7.10;;;6.50;;
16593;SDS011;8410;52.532;13.336;2023-04-24T02:53:52;7.00;;;6.40;;
16593;SDS011;8410;52.532;13.336;2023-04-24T02:56:20;6.40;;;5.90;;
16593;SDS011;8410;52.532;13.336;2023-04-24T02:58:48;6.37;;;5.87;;
16593;SDS011;8410;52.532;13.336;2023-04-24T03:01:15;6.43;;;5.93;;
16593;SDS011;8410;52.532;13.336;2023-04-24T03:03:44;6.00;;;5.50;;
16593;SDS011;8410;52.532;13.336;2023-04-24T03:06:13;6.23;;;5.73;;
16593;SDS011;8410;52.532;13.336;2023-04-24T03:08:40;6.40;;;5.90;;
16593;SDS011;8410;52.532;13.336;2023-04-24T03:11:08;6.47;;;5.97;;
16593;SDS011;8410;52.532;13.336;2023-04-24T03:13:35;6.97;;;6.37;;
16593;SDS011;8410;52.532;13.336;2023-04-24T03:16:02;7.00;;;6.50;;
16593;SDS011;8410;52.532;13.336;2023-04-24T03:18:30;10.37;;;7.07;;
16593;SDS011;8410;52.532;13.336;2023-04-24T03:20:58;7.00;;;6.30;;
16593;SDS011;8410;52.532;13.336;2023-04-24T03:23:27;7.40;;;6.70;;
16593;SDS011;8410;52.532;13.336;2023-04-24T03:25:54;6.67;;;6.07;;
16593;SDS011;8410;52.532;13.336;2023-04-24T03:28:22;6.77;;;6.17;;
16593;SDS011;8410;52.532;13.336;2023-04-24T03:30:49;7.13;;;6.37;;
16593;SDS011;8410;52.532;13.336;2023-04-24T03:33:17;6.80;;;6.10;;
16593;SDS011;8410;52.532;13.336;2023-04-24T03:35:44;7.97;;;6.37;;
16593;SDS011;8410;52.532;13.336;2023-04-24T03:38:11;6.57;;;5.97;;
16593;SDS011;8410;52.532;13.336;2023-04-24T03:40:40;6.50;;;6.00;;
16593;SDS011;8410;52.532;13.336;2023-04-24T03:43:08;6.90;;;6.30;;
16593;SDS011;8410;52.532;13.336;2023-04-24T03:45:35;7.03;;;6.43;;
16593;SDS011;8410;52.532;13.336;2023-04-24T03:48:02;6.97;;;6.37;;
16593;SDS011;8410;52.532;13.336;2023-04-24T03:50:30;5.83;;;5.33;;
16593;SDS011;8410;52.532;13.336;2023-04-24T03:52:57;6.57;;;6.07;;
16593;SDS011;8410;52.532;13.336;2023-04-24T03:55:25;7.40;;;6.80;;
16593;SDS011;8410;52.532;13.336;2023-04-24T03:57:53;5.90;;;5.40;;
16593;SDS011;8410;52.532;13.336;2023-04-24T04:00:21;6.80;;;6.10;;
16593;SDS011;8410;52.532;13.336;2023-04-24T04:02:48;6.57;;;5.97;;
16593;SDS011;8410;52.532;13.336;2023-04-24T04:05:16;6.37;;;5.77;;
16593;SDS011;8410;52.532;13.336;2023-04-24T04:07:44;6.77;;;6.17;;
16593;SDS011;8410;52.532;13.336;2023-04-24T04:10:11;6.63;;;5.80;;
16593;SDS011;8410;52.532;13.336;2023-04-24T04:12:39;5.67;;;5.20;;
16593;SDS011;8410;52.532;13.336;2023-04-24T04:15:08;5.40;;;5.00;;
16593;SDS011;8410;52.532;13.336;2023-04-24T04:17:36;6.87;;;6.23;;
16593;SDS011;8410;52.532;13.336;2023-04-24T04:20:04;5.40;;;4.93;;
16593;SDS011;8410;52.532;13.336;2023-04-24T04:22:35;9.40;;;8.50;;
16593;SDS011;8410;52.532;13.336;2023-04-24T04:25:03;6.30;;;5.70;;
16593;SDS011;8410;52.532;13.336;2023-04-24T04:27:30;4.63;;;4.33;;
16593;SDS011;8410;52.532;13.336;2023-04-24T04:29:59;6.30;;;5.80;;
16593;SDS011;8410;52.532;13.336;2023-04-24T04:32:30;5.70;;;5.23;;
16593;SDS011;8410;52.532;13.336;2023-04-24T04:34:59;4.60;;;4.20;;
16593;SDS011;8410;52.532;13.336;2023-04-24T04:37:29;8.87;;;5.83;;
16593;SDS011;8410;52.532;13.336;2023-04-24T04:39:57;5.47;;;5.00;;
16593;SDS011;8410;52.532;13.336;2023-04-24T04:42:25;5.70;;;5.27;;
16593;SDS011;8410;52.532;13.336;2023-04-24T04:44:53;5.70;;;5.20;;
16593;SDS011;8410;52.532;13.336;2023-04-24T04:47:20;7.23;;;6.57;;
16593;SDS011;8410;52.532;13.336;2023-04-24T04:49:50;6.03;;;5.43;;
16593;SDS011;8410;52.532;13.336;2023-04-24T04:52:18;6.70;;;6.10;;
16593;SDS011;8410;52.532;13.336;2023-04-24T04:54:45;5.73;;;5.23;;
16593;SDS011;8410;52.532;13.336;2023-04-24T04:57:13;6.50;;;5.93;;
16593;SDS011;8410;52.532;13.336;2023-04-24T04:59:40;4.67;;;4.33;;
16593;SDS011;8410;52.532;13.336;2023-04-24T05:02:08;6.77;;;6.07;;
16593;SDS011;8410;52.532;13.336;2023-04-24T05:04:36;6.80;;;6.20;;
16593;SDS011;8410;52.532;13.336;2023-04-24T05:07:05;5.93;;;5.47;;
16593;SDS011;8410;52.532;13.336;2023-04-24T05:09:32;6.23;;;5.53;;
16593;SDS011;8410;52.532;13.336;2023-04-24T05:12:00;5.63;;;5.23;;
16593;SDS011;8410;52.532;13.336;2023-04-24T05:14:28;5.97;;;5.37;;
16593;SDS011;8410;52.532;13.336;2023-04-24T05:16:55;9.50;;;4.80;;
16593;SDS011;8410;52.532;13.336;2023-04-24T05:19:23;5.77;;;4.90;;
16593;SDS011;8410;52.532;13.336;2023-04-24T05:21:50;7.47;;;5.07;;
16593;SDS011;8410;52.532;13.336;2023-04-24T05:24:19;8.47;;;4.83;;
16593;SDS011;8410;52.532;13.336;2023-04-24T05:26:46;9.07;;;5.10;;
16593;SDS011;8410;52.532;13.336;2023-04-24T05:29:14;5.23;;;4.20;;
16593;SDS011;8410;52.532;13.336;2023-04-24T05:31:41;6.83;;;5.80;;
16593;SDS011;8410;52.532;13.336;2023-04-24T05:34:09;5.20;;;4.70;;
16593;SDS011;8410;52.532;13.336;2023-04-24T05:36:36;7.73;;;4.97;;
16593;SDS011;8410;52.532;13.336;2023-04-24T05:39:03;6.20;;;4.70;;
16593;SDS011;8410;52.532;13.336;2023-04-24T05:41:34;74.53;;;61.73;;
16593;SDS011;8410;52.532;13.336;2023-04-24T05:44:02;40.70;;;36.67;;
16593;SDS011;8410;52.532;13.336;2023-04-24T05:46:29;16.80;;;15.20;;
16593;SDS011;8410;52.532;13.336;2023-04-24T05:48:57;50.72;;;45.92;;
16593;SDS011;8410;52.532;13.336;2023-04-24T05:51:24;47.60;;;43.13;;
16593;SDS011;8410;52.532;13.336;2023-04-24T05:53:52;29.38;;;26.67;;
16593;SDS011;8410;52.532;13.336;2023-04-24T05:56:19;38.92;;;35.22;;
16593;SDS011;8410;52.532;13.336;2023-04-24T05:58:48;30.70;;;27.92;;
16593;SDS011;8410;52.532;13.336;2023-04-24T06:01:16;27.77;;;25.17;;
16593;SDS011;8410;52.532;13.336;2023-04-24T06:03:44;25.90;;;23.42;;
16593;SDS011;8410;52.532;13.336;2023-04-24T06:06:12;10.65;;;9.75;;
16593;SDS011;8410;52.532;13.336;2023-04-24T06:08:40;18.48;;;16.85;;
16593;SDS011;8410;52.532;13.336;2023-04-24T06:11:08;15.63;;;14.18;;
16593;SDS011;8410;52.532;13.336;2023-04-24T06:13:36;3.35;;;3.05;;
16593;SDS011;8410;52.532;13.336;2023-04-24T06:16:04;4.95;;;4.18;;
16593;SDS011;8410;52.532;13.336;2023-04-24T06:18:32;4.72;;;2.90;;
16593;SDS011;8410;52.532;13.336;2023-04-24T06:21:00;4.43;;;2.87;;
16593;SDS011;8410;52.532;13.336;2023-04-24T06:23:27;2.63;;;2.30;;
16593;SDS011;8410;52.532;13.336;2023-04-24T06:25:55;2.17;;;2.00;;
16593;SDS011;8410;52.532;13.336;2023-04-24T06:28:22;4.33;;;2.70;;
16593;SDS011;8410;52.532;13.336;2023-04-24T06:30:50;4.27;;;3.30;;
16593;SDS011;8410;52.532;13.336;2023-04-24T06:33:19;4.77;;;2.47;;
16593;SDS011;8410;52.532;13.336;2023-04-24T06:35:49;4.60;;;3.33;;
16593;SDS011;8410;52.532;13.336;2023-04-24T06:38:16;5.30;;;3.10;;
16593;SDS011;8410;52.532;13.336;2023-04-24T06:40:43;2.80;;;2.50;;
16593;SDS011;8410;52.532;13.336;2023-04-24T06:43:11;2.20;;;1.97;;
16593;SDS011;8410;52.532;13.336;2023-04-24T06:45:38;2.10;;;1.73;;
16593;SDS011;8410;52.532;13.336;2023-04-24T06:48:06;3.67;;;2.00;;
16593;SDS011;8410;52.532;13.336;2023-04-24T06:50:35;2.63;;;1.63;;
16593;SDS011;8410;52.532;13.336;2023-04-24T06:53:02;2.20;;;1.80;;
16593;SDS011;8410;52.532;13.336;2023-04-24T06:55:30;10.43;;;2.10;;
16593;SDS011;8410;52.532;13.336;2023-04-24T06:57:57;2.20;;;1.50;;
16593;SDS011;8410;52.532;13.336;2023-04-24T07:00:25;1.93;;;1.17;;
16593;SDS011;8410;52.532;13.336;2023-04-24T07:02:52;5.33;;;1.63;;
16593;SDS011;8410;52.532;13.336;2023-04-24T07:05:20;4.57;;;1.40;;
16593;SDS011;8410;52.532;13.336;2023-04-24T07:07:49;1.90;;;1.40;;
16593;SDS011;8410;52.532;13.336;2023-04-24T07:10:17;1.00;;;1.00;;
16593;SDS011;8410;52.532;13.336;2023-04-24T07:12:46;2.57;;;1.10;;
16593;SDS011;8410;52.532;13.336;2023-04-24T07:15:13;2.87;;;1.17;;
16593;SDS011;8410;52.532;13.336;2023-04-24T07:17:41;5.80;;;1.20;;
16593;SDS011;8410;52.532;13.336;2023-04-24T07:20:10;1.57;;;1.00;;
16593;SDS011;8410;52.532;13.336;2023-04-24T07:22:37;2.70;;;1.13;;
16593;SDS011;8410;52.532;13.336;2023-04-24T07:25:07;2.67;;;1.20;;
16593;SDS011;8410;52.532;13.336;2023-04-24T07:27:35;1.70;;;0.90;;
16593;SDS011;8410;52.532;13.336;2023-04-24T07:30:03;2.70;;;1.20;;
16593;SDS011;8410;52.532;13.336;2023-04-24T07:32:31;2.73;;;1.10;;
16593;SDS011;8410;52.532;13.336;2023-04-24T07:35:01;2.20;;;0.90;;
16593;SDS011;8410;52.532;13.336;2023-04-24T07:37:29;1.90;;;1.10;;
16593;SDS011;8410;52.532;13.336;2023-04-24T07:39:56;6.00;;;1.50;;
16593;SDS011;8410;52.532;13.336;2023-04-24T07:42:25;3.58;;;1.08;;
16593;SDS011;8410;52.532;13.336;2023-04-24T07:44:53;1.47;;;1.00;;
16593;SDS011;8410;52.532;13.336;2023-04-24T07:47:20;2.20;;;0.93;;
16593;SDS011;8410;52.532;13.336;2023-04-24T07:49:47;2.87;;;2.40;;
16593;SDS011;8410;52.532;13.336;2023-04-24T07:52:15;2.63;;;1.77;;
16593;SDS011;8410;52.532;13.336;2023-04-24T07:54:42;8.53;;;1.90;;
16593;SDS011;8410;52.532;13.336;2023-04-24T07:57:10;3.37;;;1.00;;
16593;SDS011;8410;52.532;13.336;2023-04-24T07:59:39;2.30;;;1.30;;
16593;SDS011;8410;52.532;13.336;2023-04-24T08:02:07;7.47;;;2.40;;
16593;SDS011;8410;52.532;13.336;2023-04-24T08:04:35;4.50;;;2.07;;
16593;SDS011;8410;52.532;13.336;2023-04-24T08:07:03;2.43;;;1.30;;
16593;SDS011;8410;52.532;13.336;2023-04-24T08:09:30;1.93;;;0.90;;
16593;SDS011;8410;52.532;13.336;2023-04-24T08:11:58;2.47;;;0.77;;
16593;SDS011;8410;52.532;13.336;2023-04-24T08:14:25;0.50;;;0.50;;
16593;SDS011;8410;52.532;13.336;2023-04-24T08:16:54;3.80;;;1.20;;
16593;SDS011;8410;52.532;13.336;2023-04-24T08:19:23;2.97;;;0.67;;
16593;SDS011;8410;52.532;13.336;2023-04-24T08:21:51;0.63;;;0.63;;
16593;SDS011;8410;52.532;13.336;2023-04-24T08:24:19;0.60;;;0.60;;
16593;SDS011;8410;52.532;13.336;2023-04-24T08:26:46;0.70;;;0.70;;
16593;SDS011;8410;52.532;13.336;2023-04-24T08:29:16;1.73;;;0.83;;
16593;SDS011;8410;52.532;13.336;2023-04-24T08:31:43;5.20;;;1.80;;
16593;SDS011;8410;52.532;13.336;2023-04-24T08:34:12;2.47;;;1.00;;
16593;SDS011;8410;52.532;13.336;2023-04-24T08:36:39;4.93;;;1.50;;
16593;SDS011;8410;52.532;13.336;2023-04-24T08:39:12;1.57;;;1.00;;
16593;SDS011;8410;52.532;13.336;2023-04-24T08:41:41;1.83;;;1.20;;
16593;SDS011;8410;52.532;13.336;2023-04-24T08:44:09;2.73;;;1.00;;
16593;SDS011;8410;52.532;13.336;2023-04-24T08:46:36;6.40;;;1.15;;
16593;SDS011;8410;52.532;13.336;2023-04-24T08:49:04;2.23;;;0.90;;
16593;SDS011;8410;52.532;13.336;2023-04-24T08:51:33;2.40;;;1.43;;
16593;SDS011;8410;52.532;13.336;2023-04-24T08:54:01;5.47;;;3.10;;
16593;SDS011;8410;52.532;13.336;2023-04-24T08:56:29;3.95;;;1.75;;
16593;SDS011;8410;52.532;13.336;2023-04-24T08:59:00;5.70;;;2.83;;
16593;SDS011;8410;52.532;13.336;2023-04-24T09:01:29;5.38;;;1.40;;
16593;SDS011;8410;52.532;13.336;2023-04-24T09:04:00;2.35;;;2.15;;
16593;SDS011;8410;52.532;13.336;2023-04-24T09:06:30;3.15;;;1.45;;
16593;SDS011;8410;52.532;13.336;2023-04-24T09:09:00;6.03;;;1.50;;
16593;SDS011;8410;52.532;13.336;2023-04-24T09:11:30;3.33;;;0.87;;
16593;SDS011;8410;52.532;13.336;2023-04-24T09:13:58;3.63;;;1.43;;
16593;SDS011;8410;52.532;13.336;2023-04-24T09:16:26;7.67;;;1.80;;
16593;SDS011;8410;52.532;13.336;2023-04-24T09:18:54;1.17;;;0.60;;
16593;SDS011;8410;52.532;13.336;2023-04-24T09:21:22;1.10;;;0.98;;
16593;SDS011;8410;52.532;13.336;2023-04-24T09:23:57;1.83;;;1.52;;
16593;SDS011;8410;52.532;13.336;2023-04-24T09:26:27;1.77;;;0.93;;
16593;SDS011;8410;52.532;13.336;2023-04-24T09:28:58;3.25;;;1.30;;
16593;SDS011;8410;52.532;13.336;2023-04-24T09:31:27;3.70;;;0.85;;
16593;SDS011;8410;52.532;13.336;2023-04-24T09:33:56;2.55;;;1.00;;
16593;SDS011;8410;52.532;13.336;2023-04-24T09:36:28;2.13;;;0.90;;
16593;SDS011;8410;52.532;13.336;2023-04-24T09:38:58;3.03;;;1.90;;
16593;SDS011;8410;52.532;13.336;2023-04-24T09:41:27;4.50;;;1.48;;
16593;SDS011;8410;52.532;13.336;2023-04-24T09:43:56;1.60;;;1.50;;
16593;SDS011;8410;52.532;13.336;2023-04-24T09:46:29;4.87;;;1.83;;
16593;SDS011;8410;52.532;13.336;2023-04-24T09:49:02;3.10;;;2.13;;
16593;SDS011;8410;52.532;13.336;2023-04-24T09:51:35;2.77;;;1.27;;
16593;SDS011;8410;52.532;13.336;2023-04-24T09:54:04;2.88;;;1.33;;
16593;SDS011;8410;52.532;13.336;2023-04-24T09:56:43;2.38;;;1.02;;
16593;SDS011;8410;52.532;13.336;2023-04-24T09:59:12;1.23;;;1.10;;
16593;SDS011;8410;52.532;13.336;2023-04-24T10:01:40;2.17;;;1.30;;
16593;SDS011;8410;52.532;13.336;2023-04-24T10:04:17;1.60;;;1.10;;
16593;SDS011;8410;52.532;13.336;2023-04-24T10:06:46;3.30;;;1.13;;
16593;SDS011;8410;52.532;13.336;2023-04-24T10:09:15;1.45;;;1.08;;
16593;SDS011;8410;52.532;13.336;2023-04-24T10:11:45;2.17;;;1.07;;
16593;SDS011;8410;52.532;13.336;2023-04-24T10:14:13;2.78;;;1.50;;
16593;SDS011;8410;52.532;13.336;2023-04-24T10:16:45;1.77;;;1.02;;
16593;SDS011;8410;52.532;13.336;2023-04-24T10:19:14;1.17;;;1.05;;
16593;SDS011;8410;52.532;13.336;2023-04-24T10:21:42;3.70;;;1.10;;
16593;SDS011;8410;52.532;13.336;2023-04-24T10:24:12;3.35;;;1.13;;
16593;SDS011;8410;52.532;13.336;2023-04-24T10:26:42;1.60;;;1.00;;
16593;SDS011;8410;52.532;13.336;2023-04-24T10:29:12;2.50;;;1.00;;
16593;SDS011;8410;52.532;13.336;2023-04-24T10:31:41;3.03;;;1.25;;
16593;SDS011;8410;52.532;13.336;2023-04-24T10:34:12;1.73;;;1.17;;
16593;SDS011;8410;52.532;13.336;2023-04-24T10:36:51;3.50;;;1.00;;
16593;SDS011;8410;52.532;13.336;2023-04-24T10:39:23;2.87;;;0.90;;
16593;SDS011;8410;52.532;13.336;2023-04-24T10:41:53;2.63;;;0.97;;
16593;SDS011;8410;52.532;13.336;2023-04-24T10:44:24;2.53;;;1.10;;
16593;SDS011;8410;52.532;13.336;2023-04-24T10:46:53;2.07;;;1.13;;
16593;SDS011;8410;52.532;13.336;2023-04-24T10:49:27;2.43;;;1.40;;
16593;SDS011;8410;52.532;13.336;2023-04-24T10:51:59;1.80;;;1.10;;
16593;SDS011;8410;52.532;13.336;2023-04-24T10:54:28;2.23;;;1.20;;
16593;SDS011;8410;52.532;13.336;2023-04-24T11:00:18;4.27;;;1.50;;
16593;SDS011;8410;52.532;13.336;2023-04-24T11:02:47;5.50;;;1.40;;
16593;SDS011;8410;52.532;13.336;2023-04-24T11:05:17;1.40;;;1.00;;
16593;SDS011;8410;52.532;13.336;2023-04-24T11:10:39;2.55;;;1.20;;
16593;SDS011;8410;52.532;13.336;2023-04-24T11:13:13;4.07;;;1.38;;
16593;SDS011;8410;52.532;13.336;2023-04-24T11:15:43;1.08;;;0.98;;
16593;SDS011;8410;52.532;13.336;2023-04-24T11:18:14;2.88;;;0.90;;
16593;SDS011;8410;52.532;13.336;2023-04-24T11:20:42;2.92;;;1.65;;
16593;SDS011;8410;52.532;13.336;2023-04-24T11:23:11;0.80;;;0.80;;
16593;SDS011;8410;52.532;13.336;2023-04-24T11:25:40;4.38;;;1.05;;
16593;SDS011;8410;52.532;13.336;2023-04-24T11:28:08;1.98;;;1.48;;
16593;SDS011;8410;52.532;13.336;2023-04-24T11:30:43;5.27;;;1.10;;
16593;SDS011;8410;52.532;13.336;2023-04-24T11:33:11;2.97;;;1.48;;
16593;SDS011;8410;52.532;13.336;2023-04-24T11:35:39;5.97;;;2.50;;
16593;SDS011;8410;52.532;13.336;2023-04-24T11:38:07;7.60;;;1.63;;
16593;SDS011;8410;52.532;13.336;2023-04-24T11:40:50;6.00;;;1.90;;
16593;SDS011;8410;52.532;13.336;2023-04-24T11:43:18;7.83;;;1.90;;
16593;SDS011;8410;52.532;13.336;2023-04-24T11:45:48;4.63;;;1.40;;
16593;SDS011;8410;52.532;13.336;2023-04-24T11:48:18;2.83;;;1.60;;
16593;SDS011;8410;52.532;13.336;2023-04-24T11:50:48;6.03;;;2.20;;
16593;SDS011;8410;52.532;13.336;2023-04-24T11:53:18;5.13;;;2.20;;
16593;SDS011;8410;52.532;13.336;2023-04-24T11:55:46;2.33;;;1.50;;
16593;SDS011;8410;52.532;13.336;2023-04-24T11:58:14;4.57;;;2.17;;
16593;SDS011;8410;52.532;13.336;2023-04-24T12:00:41;3.37;;;1.80;;
16593;SDS011;8410;52.532;13.336;2023-04-24T12:03:10;4.30;;;1.93;;
16593;SDS011;8410;52.532;13.336;2023-04-24T12:05:39;1.70;;;1.10;;
16593;SDS011;8410;52.532;13.336;2023-04-24T12:08:07;5.60;;;1.40;;
16593;SDS011;8410;52.532;13.336;2023-04-24T12:10:35;2.77;;;1.30;;
16593;SDS011;8410;52.532;13.336;2023-04-24T12:13:03;1.97;;;1.00;;
16593;SDS011;8410;52.532;13.336;2023-04-24T12:15:31;4.23;;;1.40;;
16593;SDS011;8410;52.532;13.336;2023-04-24T12:17:59;4.03;;;1.30;;
16593;SDS011;8410;52.532;13.336;2023-04-24T12:20:28;2.67;;;1.10;;
16593;SDS011;8410;52.532;13.336;2023-04-24T12:22:57;2.53;;;1.30;;
16593;SDS011;8410;52.532;13.336;2023-04-24T12:25:26;3.07;;;1.60;;
16593;SDS011;8410;52.532;13.336;2023-04-24T12:27:57;3.40;;;0.90;;
16593;SDS011;8410;52.532;13.336;2023-04-24T12:30:39;2.43;;;1.50;;
16593;SDS011;8410;52.532;13.336;2023-04-24T12:33:09;4.47;;;1.20;;
16593;SDS011;8410;52.532;13.336;2023-04-24T12:35:39;2.05;;;1.00;;
16593;SDS011;8410;52.532;13.336;2023-04-24T12:38:08;4.10;;;0.90;;
16593;SDS011;8410;52.532;13.336;2023-04-24T12:40:36;1.60;;;1.00;;
16593;SDS011;8410;52.532;13.336;2023-04-24T12:43:12;2.15;;;1.60;;
16593;SDS011;8410;52.532;13.336;2023-04-24T12:45:41;3.22;;;1.23;;
16593;SDS011;8410;52.532;13.336;2023-04-24T12:48:08;4.28;;;1.10;;
16593;SDS011;8410;52.532;13.336;2023-04-24T12:50:37;2.10;;;0.98;;
16593;SDS011;8410;52.532;13.336;2023-04-24T12:53:05;1.27;;;0.70;;
16593;SDS011;8410;52.532;13.336;2023-04-24T12:55:33;1.77;;;0.70;;
16593;SDS011;8410;52.532;13.336;2023-04-24T12:58:00;1.27;;;0.70;;
16593;SDS011;8410;52.532;13.336;2023-04-24T13:00:29;1.53;;;0.90;;
16593;SDS011;8410;52.532;13.336;2023-04-24T13:02:56;3.10;;;1.10;;
16593;SDS011;8410;52.532;13.336;2023-04-24T13:05:24;4.43;;;1.20;;
16593;SDS011;8410;52.532;13.336;2023-04-24T13:07:53;1.20;;;0.80;;
16593;SDS011;8410;52.532;13.336;2023-04-24T13:10:21;1.07;;;0.77;;
16593;SDS011;8410;52.532;13.336;2023-04-24T13:12:48;1.70;;;0.90;;
16593;SDS011;8410;52.532;13.336;2023-04-24T13:15:16;1.43;;;1.30;;
16593;SDS011;8410;52.532;13.336;2023-04-24T13:17:43;2.17;;;1.00;;
16593;SDS011;8410;52.532;13.336;2023-04-24T13:20:11;1.15;;;0.93;;
16593;SDS011;8410;52.532;13.336;2023-04-24T13:22:39;3.93;;;0.97;;
16593;SDS011;8410;52.532;13.336;2023-04-24T13:25:08;6.18;;;1.40;;
16593;SDS011;8410;52.532;13.336;2023-04-24T13:27:37;1.90;;;0.80;;
16593;SDS011;8410;52.532;13.336;2023-04-24T13:30:05;7.27;;;1.70;;
16593;SDS011;8410;52.532;13.336;2023-04-24T13:32:34;0.98;;;0.88;;
16593;SDS011;8410;52.532;13.336;2023-04-24T13:35:03;5.38;;;1.20;;
16593;SDS011;8410;52.532;13.336;2023-04-24T13:37:30;3.75;;;1.05;;
16593;SDS011;8410;52.532;13.336;2023-04-24T13:39:58;3.10;;;1.00;;
16593;SDS011;8410;52.532;13.336;2023-04-24T13:42:27;2.10;;;1.00;;
16593;SDS011;8410;52.532;13.336;2023-04-24T13:44:54;1.50;;;1.00;;
16593;SDS011;8410;52.532;13.336;2023-04-24T13:47:22;2.30;;;0.80;;
16593;SDS011;8410;52.532;13.336;2023-04-24T13:49:49;3.60;;;1.08;;
16593;SDS011;8410;52.532;13.336;2023-04-24T13:52:17;2.35;;;1.00;;
16593;SDS011;8410;52.532;13.336;2023-04-24T13:54:44;9.30;;;1.50;;
16593;SDS011;8410;52.532;13.336;2023-04-24T13:57:11;4.38;;;1.00;;
16593;SDS011;8410;52.532;13.336;2023-04-24T13:59:40;4.63;;;2.25;;
16593;SDS011;8410;52.532;13.336;2023-04-24T14:02:08;3.03;;;0.90;;
16593;SDS011;8410;52.532;13.336;2023-04-24T14:04:35;6.85;;;1.15;;
16593;SDS011;8410;52.532;13.336;2023-04-24T14:07:03;1.33;;;0.93;;
16593;SDS011;8410;52.532;13.336;2023-04-24T14:09:31;2.05;;;0.98;;
16593;SDS011;8410;52.532;13.336;2023-04-24T14:11:58;2.40;;;1.00;;
16593;SDS011;8410;52.532;13.336;2023-04-24T14:14:27;1.43;;;0.90;;
16593;SDS011;8410;52.532;13.336;2023-04-24T14:16:57;2.13;;;1.00;;
16593;SDS011;8410;52.532;13.336;2023-04-24T14:19:24;2.63;;;1.02;;
16593;SDS011;8410;52.532;13.336;2023-04-24T14:21:52;5.68;;;2.15;;
16593;SDS011;8410;52.532;13.336;2023-04-24T14:24:19;4.43;;;1.80;;
16593;SDS011;8410;52.532;13.336;2023-04-24T14:26:47;3.70;;;0.95;;
16593;SDS011;8410;52.532;13.336;2023-04-24T14:29:14;1.30;;;1.20;;
16593;SDS011;8410;52.532;13.336;2023-04-24T14:31:42;2.90;;;1.20;;
16593;SDS011;8410;52.532;13.336;2023-04-24T14:34:11;1.50;;;0.95;;
16593;SDS011;8410;52.532;13.336;2023-04-24T14:36:38;1.20;;;0.80;;
16593;SDS011;8410;52.532;13.336;2023-04-24T14:39:06;3.53;;;1.17;;
16593;SDS011;8410;52.532;13.336;2023-04-24T14:41:34;2.53;;;1.10;;
16593;SDS011;8410;52.532;13.336;2023-04-24T14:44:02;3.63;;;1.37;;
16593;SDS011;8410;52.532;13.336;2023-04-24T14:46:30;2.87;;;1.03;;
16593;SDS011;8410;52.532;13.336;2023-04-24T14:48:58;4.78;;;1.30;;
16593;SDS011;8410;52.532;13.336;2023-04-24T14:51:27;1.27;;;1.17;;
16593;SDS011;8410;52.532;13.336;2023-04-24T14:53:54;1.33;;;0.97;;
16593;SDS011;8410;52.532;13.336;2023-04-24T14:56:23;1.67;;;1.07;;
16593;SDS011;8410;52.532;13.336;2023-04-24T14:58:50;2.33;;;1.00;;